createdAt,value
2019-03-26T00:00:55.432Z,18.40
2019-03-26T00:03:25.160Z,18.05
2019-03-26T00:05:55.387Z,18.37
2019-03-26T00:08:25.119Z,19.00
2019-03-26T00:10:54.849Z,18.65
2019-03-26T00:13:24.642Z,19.10
2019-03-26T00:15:54.374Z,16.12
2019-03-26T00:18:24.113Z,19.73
2019-03-26T00:20:53.884Z,19.57
2019-03-26T00:23:23.618Z,17.80
2019-03-26T00:25:53.364Z,18.05
2019-03-26T00:28:23.121Z,16.82
2019-03-26T00:30:52.862Z,17.50
2019-03-26T00:33:35.374Z,18.98
2019-03-26T00:35:53.995Z,21.75
2019-03-26T00:38:23.764Z,18.32
2019-03-26T00:40:54.500Z,17.10
2019-03-26T00:43:25.133Z,16.35
2019-03-26T00:45:54.876Z,17.32
2019-03-26T00:48:26.116Z,18.48
2019-03-26T00:50:55.865Z,18.87
2019-03-26T00:53:25.618Z,19.50
2019-03-26T00:55:55.352Z,19.00
2019-03-26T00:58:25.126Z,18.85
2019-03-26T01:00:54.987Z,20.57
2019-03-26T01:03:24.646Z,20.12
2019-03-26T01:05:54.416Z,21.30
2019-03-26T01:08:24.142Z,21.50
2019-03-26T01:10:53.879Z,22.10
2019-03-26T01:13:24.550Z,20.32
2019-03-26T01:15:54.278Z,21.30
2019-03-26T01:18:24.170Z,18.90
2019-03-26T01:20:54.307Z,19.98
2019-03-26T01:23:24.073Z,20.88
2019-03-26T01:25:53.810Z,19.10
2019-03-26T01:28:23.543Z,20.05
2019-03-26T01:30:53.323Z,19.40
2019-03-26T01:33:23.047Z,18.40
2019-03-26T01:35:53.352Z,22.73
2019-03-26T01:38:23.078Z,20.92
2019-03-26T01:40:52.847Z,21.77
2019-03-26T01:43:22.571Z,18.57
2019-03-26T01:45:52.313Z,19.67
2019-03-26T01:48:22.054Z,22.20
2019-03-26T01:50:51.771Z,21.87
2019-03-26T01:53:21.569Z,23.47
2019-03-26T01:55:51.302Z,20.30
2019-03-26T01:58:21.066Z,20.60
2019-03-26T02:00:50.819Z,22.67
2019-03-26T02:03:20.566Z,22.65
2019-03-26T02:05:50.315Z,20.80
2019-03-26T02:08:20.029Z,23.67
2019-03-26T02:10:49.818Z,21.45
2019-03-26T02:13:19.578Z,20.33
2019-03-26T02:15:49.303Z,17.90
2019-03-26T02:18:19.051Z,20.70
2019-03-26T02:20:48.782Z,19.52
2019-03-26T02:23:18.564Z,20.82
2019-03-26T02:25:48.300Z,19.23
2019-03-26T02:28:18.078Z,17.10
2019-03-26T02:30:47.841Z,18.20
2019-03-26T02:33:17.586Z,19.20
2019-03-26T02:35:47.329Z,19.07
2019-03-26T02:38:17.099Z,19.20
2019-03-26T02:40:46.938Z,19.73
2019-03-26T02:43:16.687Z,21.07
2019-03-26T02:45:46.413Z,19.27
2019-03-26T02:48:16.155Z,20.88
2019-03-26T02:50:45.935Z,19.50
2019-03-26T02:53:15.678Z,20.82
2019-03-26T02:55:45.416Z,23.07
2019-03-26T02:58:15.147Z,22.20
2019-03-26T03:00:44.913Z,21.57
2019-03-26T03:03:14.657Z,22.58
2019-03-26T03:05:44.404Z,23.70
2019-03-26T03:08:14.144Z,20.82
2019-03-26T03:10:43.880Z,19.12
2019-03-26T03:13:13.666Z,20.33
2019-03-26T03:15:43.407Z,22.30
2019-03-26T03:18:13.181Z,20.48
2019-03-26T03:20:42.903Z,23.33
2019-03-26T03:23:12.654Z,21.62
2019-03-26T03:25:42.394Z,21.73
2019-03-26T03:28:12.152Z,22.90
2019-03-26T03:30:41.901Z,23.35
2019-03-26T03:33:11.639Z,20.62
2019-03-26T03:35:51.880Z,20.72
2019-03-26T03:38:12.793Z,21.80
2019-03-26T03:40:42.629Z,21.00
2019-03-26T03:43:12.388Z,22.48
2019-03-26T03:45:42.142Z,24.37
2019-03-26T03:48:12.022Z,20.23
2019-03-26T03:50:43.359Z,20.92
2019-03-26T03:53:16.211Z,21.15
2019-03-26T03:55:46.311Z,28.12
2019-03-26T03:58:16.989Z,21.80
2019-03-26T04:00:46.741Z,22.35
2019-03-26T04:03:16.464Z,21.97
2019-03-26T04:05:46.208Z,21.05
2019-03-26T04:08:15.944Z,22.62
2019-03-26T04:10:45.719Z,23.35
2019-03-26T04:13:15.455Z,21.35
2019-03-26T04:15:45.232Z,25.08
2019-03-26T04:18:14.966Z,21.07
2019-03-26T04:20:44.707Z,20.40
2019-03-26T04:23:14.457Z,21.00
2019-03-26T04:25:44.172Z,26.33
2019-03-26T04:28:13.939Z,20.97
2019-03-26T04:30:43.673Z,22.40
2019-03-26T04:33:13.415Z,26.30
2019-03-26T04:35:43.155Z,24.12
2019-03-26T04:38:12.894Z,21.48
2019-03-26T04:40:42.686Z,28.07
2019-03-26T04:43:12.410Z,21.42
2019-03-26T04:45:42.105Z,21.68
2019-03-26T04:48:11.838Z,25.87
2019-03-26T04:50:41.573Z,26.48
2019-03-26T04:53:11.307Z,23.57
2019-03-26T04:55:41.105Z,24.00
2019-03-26T04:58:10.830Z,22.50
2019-03-26T05:00:40.578Z,23.02
2019-03-26T05:03:10.389Z,24.20
2019-03-26T05:05:40.056Z,23.02
2019-03-26T05:08:09.834Z,24.05
2019-03-26T05:10:39.573Z,25.02
2019-03-26T05:13:09.334Z,27.05
2019-03-26T05:15:39.074Z,23.75
2019-03-26T05:18:08.823Z,23.00
2019-03-26T05:20:38.610Z,25.85
2019-03-26T05:23:08.347Z,27.87
2019-03-26T05:25:38.121Z,30.20
2019-03-26T05:28:07.870Z,32.40
2019-03-26T05:30:37.604Z,26.33
2019-03-26T05:33:07.336Z,28.07
2019-03-26T05:35:37.059Z,22.85
2019-03-26T05:38:06.849Z,25.27
2019-03-26T05:40:36.574Z,26.68
2019-03-26T05:43:06.314Z,25.15
2019-03-26T05:45:36.110Z,23.38
2019-03-26T05:48:05.843Z,25.77
2019-03-26T05:50:35.582Z,29.23
2019-03-26T05:53:05.330Z,25.65
2019-03-26T05:55:35.075Z,26.00
2019-03-26T05:58:04.863Z,25.92
2019-03-26T06:00:34.600Z,28.55
2019-03-26T06:03:04.341Z,22.58
2019-03-26T06:05:34.082Z,25.50
2019-03-26T06:08:03.847Z,25.17
2019-03-26T06:10:33.583Z,21.48
2019-03-26T06:13:03.337Z,25.70
2019-03-26T06:15:33.070Z,22.10
2019-03-26T06:18:02.810Z,28.15
2019-03-26T06:20:32.710Z,28.30
2019-03-26T06:23:02.443Z,25.35
2019-03-26T06:25:32.240Z,25.00
2019-03-26T06:28:01.965Z,30.77
2019-03-26T06:30:31.699Z,28.77
2019-03-26T06:33:01.444Z,32.88
2019-03-26T06:35:31.179Z,33.13
2019-03-26T06:38:00.970Z,34.83
2019-03-26T06:40:30.703Z,36.33
2019-03-26T06:43:00.445Z,44.55
2019-03-26T06:45:30.178Z,39.78
2019-03-26T06:47:59.904Z,51.10
2019-03-26T06:50:29.674Z,78.55
2019-03-26T06:52:59.404Z,79.50
2019-03-26T06:55:29.197Z,45.30
2019-03-26T06:57:58.928Z,32.95
2019-03-26T07:00:32.814Z,40.52
2019-03-26T07:03:04.156Z,40.27
2019-03-26T07:05:33.936Z,39.27
2019-03-26T07:08:03.666Z,35.48
2019-03-26T07:10:33.402Z,30.15
2019-03-26T07:13:03.153Z,22.77
2019-03-26T07:15:32.893Z,21.37
2019-03-26T07:18:02.675Z,29.77
2019-03-26T07:20:32.417Z,38.08
2019-03-26T07:23:02.188Z,21.20
2019-03-26T07:25:31.919Z,25.43
2019-03-26T07:28:01.675Z,22.58
2019-03-26T07:30:42.027Z,20.52
2019-03-26T07:33:11.893Z,23.25
2019-03-26T07:35:41.627Z,25.88
2019-03-26T07:38:11.368Z,21.27
2019-03-26T07:40:41.109Z,20.05
2019-03-26T07:43:10.863Z,16.77
2019-03-26T07:45:40.750Z,19.10
2019-03-26T07:48:11.275Z,21.97
2019-03-26T07:50:41.043Z,17.35
2019-03-26T07:53:10.783Z,18.73
2019-03-26T07:55:43.648Z,24.12
2019-03-26T07:58:11.883Z,23.55
2019-03-26T08:00:41.630Z,15.70
2019-03-26T08:03:11.522Z,21.47
2019-03-26T08:05:41.263Z,19.57
2019-03-26T08:08:11.031Z,15.75
2019-03-26T08:10:40.775Z,31.00
2019-03-26T08:13:10.537Z,19.27
2019-03-26T08:15:40.280Z,22.75
2019-03-26T08:18:09.995Z,20.60
2019-03-26T08:20:39.898Z,22.10
2019-03-26T08:23:09.646Z,19.48
2019-03-26T08:25:40.436Z,18.75
2019-03-26T08:28:10.174Z,22.17
2019-03-26T08:30:39.960Z,36.15
2019-03-26T08:33:09.691Z,18.15
2019-03-26T08:35:39.433Z,17.60
2019-03-26T08:38:12.943Z,15.53
2019-03-26T08:40:40.617Z,17.20
2019-03-26T08:43:10.508Z,16.73
2019-03-26T08:45:40.250Z,19.63
2019-03-26T08:48:10.036Z,22.67
2019-03-26T08:50:39.759Z,18.55
2019-03-26T08:53:09.516Z,18.92
2019-03-26T08:55:39.588Z,19.10
2019-03-26T08:58:09.317Z,18.32
2019-03-26T09:00:39.119Z,16.85
2019-03-26T09:03:08.863Z,14.68
2019-03-26T09:05:38.603Z,14.03
2019-03-26T09:08:08.647Z,14.05
2019-03-26T09:10:46.625Z,16.50
2019-03-26T09:13:09.784Z,15.83
2019-03-26T09:15:39.507Z,12.47
2019-03-26T09:18:09.340Z,12.65
2019-03-26T09:20:39.055Z,11.45
2019-03-26T09:23:12.065Z,12.25
2019-03-26T09:25:40.214Z,12.10
2019-03-26T09:28:09.930Z,12.65
2019-03-26T09:30:39.664Z,12.73
2019-03-26T09:33:09.448Z,13.87
2019-03-26T09:35:39.184Z,10.75
2019-03-26T09:38:08.947Z,10.38
2019-03-26T09:40:38.678Z,12.20
2019-03-26T09:43:08.804Z,12.30
2019-03-26T09:45:38.542Z,14.25
2019-03-26T09:48:08.287Z,15.15
2019-03-26T09:50:38.270Z,10.97
2019-03-26T09:53:07.996Z,11.20
2019-03-26T09:55:37.725Z,11.57
2019-03-26T09:58:07.495Z,11.12
2019-03-26T10:00:37.347Z,12.55
2019-03-26T10:03:07.058Z,11.35
2019-03-26T10:05:36.821Z,11.20
2019-03-26T10:08:06.553Z,12.47
2019-03-26T10:10:36.286Z,11.45
2019-03-26T10:13:06.082Z,11.75
2019-03-26T10:15:35.807Z,11.70
2019-03-26T10:18:05.538Z,11.97
2019-03-26T10:20:35.455Z,12.00
2019-03-26T10:23:05.198Z,12.90
2019-03-26T10:25:34.941Z,16.57
2019-03-26T10:28:04.735Z,14.73
2019-03-26T10:30:36.573Z,11.73
2019-03-26T10:33:07.176Z,10.15
2019-03-26T10:35:37.028Z,10.72
2019-03-26T10:38:06.779Z,10.43
2019-03-26T10:40:38.311Z,10.98
2019-03-26T10:43:08.054Z,12.05
2019-03-26T10:45:37.819Z,11.55
2019-03-26T10:48:07.575Z,11.57
2019-03-26T10:50:37.290Z,11.18
2019-03-26T10:53:07.027Z,11.85
2019-03-26T10:55:36.761Z,12.28
2019-03-26T10:58:06.523Z,10.20
2019-03-26T11:00:36.259Z,10.20
2019-03-26T11:03:06.020Z,11.22
2019-03-26T11:05:35.746Z,8.60
2019-03-26T11:08:05.473Z,9.43
2019-03-26T11:10:35.235Z,9.83
2019-03-26T11:13:04.991Z,9.33
2019-03-26T11:15:34.841Z,10.40
2019-03-26T11:18:04.571Z,10.63
2019-03-26T11:20:34.315Z,10.27
2019-03-26T11:23:04.056Z,9.90
2019-03-26T11:25:33.936Z,8.35
2019-03-26T11:28:04.754Z,7.03
2019-03-26T11:30:34.510Z,11.33
2019-03-26T11:33:04.251Z,12.53
2019-03-26T11:35:34.017Z,9.03
2019-03-26T11:38:03.737Z,9.80
2019-03-26T11:40:33.481Z,11.75
2019-03-26T11:43:03.213Z,11.07
2019-03-26T11:45:32.944Z,13.05
2019-03-26T11:48:02.820Z,9.25
2019-03-26T11:50:32.542Z,9.28
2019-03-26T11:53:03.216Z,7.08
2019-03-26T11:55:32.931Z,5.72
2019-03-26T11:58:02.664Z,11.15
2019-03-26T12:00:33.965Z,14.03
2019-03-26T12:03:03.849Z,6.57
2019-03-26T12:05:33.580Z,6.65
2019-03-26T12:08:03.323Z,8.28
2019-03-26T12:10:33.058Z,12.95
2019-03-26T12:13:02.807Z,12.40
2019-03-26T12:15:32.566Z,8.40
2019-03-26T12:18:02.287Z,8.90
2019-03-26T12:20:32.170Z,10.10
2019-03-26T12:23:01.902Z,11.60
2019-03-26T12:25:31.644Z,10.10
2019-03-26T12:28:01.383Z,11.12
2019-03-26T12:30:33.616Z,9.95
2019-03-26T12:33:03.577Z,7.92
2019-03-26T12:35:33.391Z,7.87
2019-03-26T12:38:06.109Z,9.43
2019-03-26T12:40:35.849Z,12.25
2019-03-26T12:43:05.587Z,36.03
2019-03-26T12:45:36.334Z,17.45
2019-03-26T12:48:06.064Z,15.05
2019-03-26T12:50:35.855Z,15.53
2019-03-26T12:53:05.588Z,19.73
2019-03-26T12:55:35.326Z,16.02
2019-03-26T12:58:05.219Z,18.45
2019-03-26T13:00:35.368Z,17.47
2019-03-26T13:03:05.102Z,14.98
2019-03-26T13:05:34.871Z,16.25
2019-03-26T13:08:06.642Z,17.53
2019-03-26T13:10:37.694Z,16.02
2019-03-26T13:13:07.664Z,17.13
2019-03-26T13:15:37.410Z,20.02
2019-03-26T13:18:07.134Z,21.00
2019-03-26T13:20:36.939Z,26.42
2019-03-26T13:23:06.666Z,18.87
2019-03-26T13:25:36.423Z,22.30
2019-03-26T13:28:06.186Z,27.77
2019-03-26T13:30:35.926Z,24.45
2019-03-26T13:33:05.663Z,20.57
2019-03-26T13:35:35.998Z,26.02
2019-03-26T13:38:05.750Z,27.45
2019-03-26T13:40:35.851Z,29.82
2019-03-26T13:43:05.601Z,20.37
2019-03-26T13:45:35.329Z,29.27
2019-03-26T13:48:06.120Z,22.62
2019-03-26T13:50:35.842Z,20.43
2019-03-26T13:53:05.593Z,24.35
2019-03-26T13:55:36.185Z,19.40
2019-03-26T13:58:05.939Z,22.05
2019-03-26T14:00:37.527Z,20.32
2019-03-26T14:03:07.772Z,35.50
2019-03-26T14:05:37.552Z,20.57
2019-03-26T14:08:07.321Z,19.80
2019-03-26T14:10:41.257Z,23.87
2019-03-26T14:13:08.531Z,20.72
2019-03-26T14:15:38.302Z,24.40
2019-03-26T14:18:08.027Z,30.93
2019-03-26T14:20:37.866Z,16.93
2019-03-26T14:23:07.521Z,22.42
2019-03-26T14:25:37.541Z,18.55
2019-03-26T14:28:07.295Z,17.42
2019-03-26T14:30:42.190Z,18.30
2019-03-26T14:33:11.915Z,18.23
2019-03-26T14:35:41.682Z,20.70
2019-03-26T14:38:11.418Z,38.28
2019-03-26T14:40:54.030Z,12.40
2019-03-26T14:43:13.565Z,13.62
2019-03-26T14:45:43.342Z,15.10
2019-03-26T14:48:13.174Z,21.23
2019-03-26T14:50:49.946Z,18.37
2019-03-26T14:53:19.678Z,15.63
2019-03-26T14:55:50.377Z,16.40
2019-03-26T14:58:20.121Z,17.37
2019-03-26T15:00:49.883Z,14.33
2019-03-26T15:03:20.621Z,17.27
2019-03-26T15:05:50.394Z,19.05
2019-03-26T15:08:20.126Z,15.07
2019-03-26T15:10:49.922Z,11.63
2019-03-26T15:13:19.654Z,17.12
2019-03-26T15:15:51.232Z,13.40
2019-03-26T15:18:20.977Z,13.68
2019-03-26T15:20:50.735Z,12.93
2019-03-26T15:23:20.470Z,15.32
2019-03-26T15:25:50.205Z,16.12
2019-03-26T15:28:19.979Z,16.70
2019-03-26T15:30:49.704Z,20.32
2019-03-26T15:33:19.757Z,16.85
2019-03-26T15:35:49.530Z,20.03
2019-03-26T15:38:19.236Z,18.23
2019-03-26T15:40:49.031Z,21.48
2019-03-26T15:43:18.761Z,16.45
2019-03-26T15:45:48.495Z,15.50
2019-03-26T15:48:18.226Z,17.05
2019-03-26T15:50:48.950Z,17.27
2019-03-26T15:53:18.723Z,14.38
2019-03-26T15:55:48.451Z,17.73
2019-03-26T15:58:18.320Z,21.30
2019-03-26T16:00:48.051Z,23.77
2019-03-26T16:03:17.935Z,21.82
2019-03-26T16:05:47.842Z,23.98
2019-03-26T16:08:17.602Z,19.37
2019-03-26T16:10:47.322Z,17.03
2019-03-26T16:13:17.094Z,19.35
2019-03-26T16:15:46.867Z,21.68
2019-03-26T16:18:16.607Z,14.98
2019-03-26T16:20:46.338Z,21.90
2019-03-26T16:23:16.068Z,20.12
2019-03-26T16:25:45.852Z,17.80
2019-03-26T16:28:15.595Z,24.35
2019-03-26T16:30:45.329Z,20.02
2019-03-26T16:33:15.065Z,17.75
2019-03-26T16:35:44.791Z,15.20
2019-03-26T16:38:14.579Z,20.62
2019-03-26T16:40:44.322Z,27.05
2019-03-26T16:43:14.132Z,24.52
2019-03-26T16:45:43.830Z,18.92
2019-03-26T16:48:13.567Z,17.00
2019-03-26T16:50:43.325Z,44.93
2019-03-26T16:53:13.050Z,43.68
2019-03-26T16:55:42.819Z,26.48
2019-03-26T16:58:12.545Z,33.47
2019-03-26T17:00:42.303Z,23.85
2019-03-26T17:03:12.038Z,19.00
2019-03-26T17:05:41.778Z,17.67
2019-03-26T17:08:11.830Z,20.90
2019-03-26T17:10:41.587Z,20.60
2019-03-26T17:13:11.362Z,28.47
2019-03-26T17:15:41.110Z,49.30
2019-03-26T17:18:10.898Z,25.70
2019-03-26T17:20:40.562Z,21.05
2019-03-26T17:23:10.298Z,21.02
2019-03-26T17:25:40.062Z,24.65
2019-03-26T17:28:09.783Z,17.67
2019-03-26T17:30:39.538Z,19.17
2019-03-26T17:33:09.286Z,22.37
2019-03-26T17:35:39.458Z,22.48
2019-03-26T17:38:09.178Z,23.57
2019-03-26T17:40:38.970Z,20.00
2019-03-26T17:43:08.740Z,25.05
2019-03-26T17:45:38.486Z,27.32
2019-03-26T17:48:08.236Z,38.43
2019-03-26T17:50:37.966Z,30.02
2019-03-26T17:53:07.751Z,32.33
2019-03-26T17:55:37.495Z,34.50
2019-03-26T17:58:07.275Z,26.68
2019-03-26T18:00:43.406Z,45.88
2019-03-26T18:03:25.780Z,40.70
2019-03-26T18:05:44.563Z,29.80
2019-03-26T18:08:14.349Z,25.60
2019-03-26T18:10:44.095Z,41.63
2019-03-26T18:13:13.888Z,48.83
2019-03-26T18:15:43.629Z,29.25
2019-03-26T18:18:13.366Z,47.15
2019-03-26T18:20:43.111Z,47.05
2019-03-26T18:23:12.866Z,33.78
2019-03-26T18:25:42.667Z,27.07
2019-03-26T18:28:12.425Z,29.00
2019-03-26T18:30:42.218Z,29.30
2019-03-26T18:33:12.089Z,19.57
2019-03-26T18:35:41.893Z,29.87
2019-03-26T18:38:14.623Z,33.63
2019-03-26T18:40:43.117Z,54.53
2019-03-26T18:43:13.837Z,29.60
2019-03-26T18:45:43.642Z,26.55
2019-03-26T18:48:13.382Z,44.55
2019-03-26T18:50:43.232Z,46.25
2019-03-26T18:53:12.947Z,33.25
2019-03-26T18:55:42.919Z,18.67
2019-03-26T18:58:12.718Z,17.50
2019-03-26T19:00:43.696Z,18.48
2019-03-26T19:03:13.754Z,14.03
2019-03-26T19:05:43.538Z,14.73
2019-03-26T19:08:13.290Z,17.37
2019-03-26T19:10:43.066Z,15.08
2019-03-26T19:13:19.386Z,16.73
2019-03-26T19:15:44.242Z,31.17
2019-03-26T19:18:13.969Z,29.80
2019-03-26T19:20:43.735Z,24.52
2019-03-26T19:23:13.498Z,21.70
2019-03-26T19:25:43.219Z,24.87
2019-03-26T19:28:12.993Z,25.23
2019-03-26T19:30:42.724Z,23.95
2019-03-26T19:33:12.474Z,24.77
2019-03-26T19:35:42.220Z,24.80
2019-03-26T19:38:11.956Z,22.40
2019-03-26T19:40:41.787Z,22.98
2019-03-26T19:43:11.805Z,24.23
2019-03-26T19:45:41.773Z,21.52
2019-03-26T19:48:11.498Z,20.72
2019-03-26T19:50:41.283Z,25.30
2019-03-26T19:53:11.026Z,17.10
2019-03-26T19:55:40.795Z,20.32
2019-03-26T19:58:10.527Z,21.85
2019-03-26T20:00:41.743Z,22.30
2019-03-26T20:03:11.551Z,22.50
2019-03-26T20:05:41.302Z,26.37
2019-03-26T20:08:11.101Z,27.07
2019-03-26T20:10:40.840Z,26.90
2019-03-26T20:13:23.250Z,24.87
2019-03-26T20:15:42.070Z,21.50
2019-03-26T20:18:11.844Z,20.12
2019-03-26T20:20:41.626Z,21.85
2019-03-26T20:23:11.358Z,24.63
2019-03-26T20:25:41.256Z,19.10
2019-03-26T20:28:10.992Z,21.87
2019-03-26T20:30:40.773Z,20.97
2019-03-26T20:33:10.511Z,17.87
2019-03-26T20:35:40.256Z,19.85
2019-03-26T20:38:10.040Z,25.15
2019-03-26T20:40:39.775Z,21.70
2019-03-26T20:43:09.522Z,26.68
2019-03-26T20:45:39.257Z,20.45
2019-03-26T20:48:09.058Z,25.27
2019-03-26T20:50:38.795Z,26.33
2019-03-26T20:53:08.919Z,30.52
2019-03-26T20:55:38.651Z,42.30
2019-03-26T20:58:08.531Z,72.20
2019-03-26T21:00:40.428Z,49.42
2019-03-26T21:03:11.389Z,25.02
2019-03-26T21:05:41.171Z,21.82
2019-03-26T21:08:10.911Z,21.55
2019-03-26T21:10:40.757Z,23.38
2019-03-26T21:13:10.531Z,24.32
2019-03-26T21:15:42.625Z,19.45
2019-03-26T21:18:11.735Z,25.77
2019-03-26T21:20:41.496Z,25.40
2019-03-26T21:23:11.373Z,23.30
2019-03-26T21:25:41.110Z,27.15
2019-03-26T21:28:10.871Z,23.40
2019-03-26T21:30:40.599Z,20.90
2019-03-26T21:33:10.340Z,22.85
2019-03-26T21:35:40.090Z,20.95
2019-03-26T21:38:09.821Z,26.40
2019-03-26T21:40:39.606Z,21.90
2019-03-26T21:43:09.654Z,28.40
2019-03-26T21:45:39.843Z,23.87
2019-03-26T21:48:10.283Z,27.32
2019-03-26T21:50:40.026Z,21.33
2019-03-26T21:53:09.819Z,27.35
2019-03-26T21:55:39.550Z,30.60
2019-03-26T22:01:56.575Z,31.40
2019-03-26T22:04:26.115Z,33.35
2019-03-26T22:06:55.644Z,30.45
2019-03-26T22:09:25.084Z,24.23
2019-03-26T22:11:54.601Z,29.70
2019-03-26T22:14:24.156Z,27.93
2019-03-26T22:16:53.690Z,19.60
2019-03-26T22:19:28.802Z,20.75
2019-03-26T22:21:54.446Z,21.43
2019-03-26T22:24:24.223Z,19.75
2019-03-26T22:26:53.957Z,21.87
2019-03-26T22:29:23.700Z,46.57
2019-03-26T22:31:53.434Z,111.17
2019-03-26T22:34:23.167Z,67.40
2019-03-26T22:36:52.945Z,35.43
2019-03-26T22:39:22.681Z,31.68
2019-03-26T22:41:52.415Z,33.67
2019-03-26T22:44:31.234Z,29.10
2019-03-26T22:46:54.554Z,27.20
2019-03-26T22:49:24.295Z,27.17
2019-03-26T22:51:54.074Z,27.07
2019-03-26T22:54:23.838Z,26.77
2019-03-26T22:56:53.571Z,22.22
2019-03-26T22:59:23.320Z,20.40
2019-03-26T23:01:53.051Z,24.60
2019-03-26T23:04:22.822Z,18.07
2019-03-26T23:06:52.547Z,17.50
2019-03-26T23:09:22.281Z,22.98
2019-03-26T23:11:52.021Z,23.42
2019-03-26T23:14:21.755Z,22.95
2019-03-26T23:16:51.525Z,24.60
2019-03-26T23:19:21.258Z,25.08
2019-03-26T23:21:51.023Z,23.22
2019-03-26T23:24:20.770Z,20.95
2019-03-26T23:26:50.535Z,18.73
2019-03-26T23:29:20.274Z,20.27
2019-03-26T23:31:50.034Z,20.07
2019-03-26T23:34:19.762Z,18.05
2019-03-26T23:36:49.492Z,22.22
2019-03-26T23:39:19.230Z,34.30
2019-03-26T23:41:48.973Z,59.83
2019-03-26T23:44:25.699Z,47.93
2019-03-26T23:46:50.111Z,55.28
2019-03-26T23:49:19.893Z,47.25
2019-03-26T23:51:49.634Z,24.92
2019-03-26T23:54:19.470Z,25.35
2019-03-26T23:56:49.206Z,23.75
2019-03-26T23:59:18.998Z,23.92
